createdAt,value
2019-02-28T00:00:37.189Z,1.98
2019-02-28T00:01:36.764Z,1.94
2019-02-28T00:02:37.136Z,1.94
2019-02-28T00:03:37.235Z,1.93
2019-02-28T00:04:37.398Z,1.93
2019-02-28T00:05:38.166Z,1.93
2019-02-28T00:06:37.708Z,1.91
2019-02-28T00:07:37.863Z,1.90
2019-02-28T00:08:37.998Z,1.91
2019-02-28T00:09:38.147Z,1.94
2019-02-28T00:10:38.321Z,1.96
2019-02-28T00:11:39.497Z,1.97
2019-02-28T00:12:38.563Z,1.98
2019-02-28T00:13:38.671Z,1.99
2019-02-28T00:14:38.801Z,2.00
2019-02-28T00:15:39.014Z,2.01
2019-02-28T00:16:39.184Z,2.06
2019-02-28T00:17:42.548Z,2.08
2019-02-28T00:18:39.653Z,2.11
2019-02-28T00:19:39.785Z,2.13
2019-02-28T00:20:39.969Z,2.16
2019-02-28T00:21:41.239Z,2.17
2019-02-28T00:22:40.328Z,2.21
2019-02-28T00:23:40.505Z,2.26
2019-02-28T00:24:40.736Z,2.28
2019-02-28T00:25:40.933Z,2.31
2019-02-28T00:26:46.518Z,2.33
2019-02-28T00:27:41.235Z,2.34
2019-02-28T00:28:41.290Z,2.34
2019-02-28T00:29:41.416Z,2.37
2019-02-28T00:30:41.575Z,2.38
2019-02-28T00:31:41.527Z,2.37
2019-02-28T00:32:41.448Z,2.36
2019-02-28T00:33:41.964Z,2.36
2019-02-28T00:34:42.075Z,2.35
2019-02-28T00:35:44.722Z,2.31
2019-02-28T00:36:42.171Z,2.31
2019-02-28T00:37:41.900Z,2.31
2019-02-28T00:38:42.317Z,2.29
2019-02-28T00:39:42.809Z,2.28
2019-02-28T00:40:43.176Z,2.27
2019-02-28T00:41:44.629Z,2.29
2019-02-28T00:42:44.040Z,2.30
2019-02-28T00:43:43.908Z,2.30
2019-02-28T00:44:44.457Z,2.30
2019-02-28T00:45:44.525Z,2.30
2019-02-28T00:46:45.284Z,2.28
2019-02-28T00:47:47.531Z,2.29
2019-02-28T00:48:44.937Z,2.27
2019-02-28T00:49:45.132Z,2.29
2019-02-28T00:50:45.370Z,2.30
2019-02-28T00:51:45.755Z,2.30
2019-02-28T00:53:46.011Z,2.31
2019-02-28T00:54:46.235Z,2.33
2019-02-28T00:55:47.033Z,2.33
2019-02-28T00:56:51.437Z,2.33
2019-02-28T00:57:47.303Z,2.33
2019-02-28T00:58:47.343Z,2.33
2019-02-28T00:59:47.439Z,2.34
2019-02-28T01:00:47.496Z,2.35
2019-02-28T01:01:47.585Z,2.37
2019-02-28T01:02:52.078Z,2.39
2019-02-28T01:03:47.837Z,2.42
2019-02-28T01:04:48.000Z,2.42
2019-02-28T01:05:48.122Z,2.44
2019-02-28T01:06:48.237Z,2.42
2019-02-28T01:07:49.079Z,2.42
2019-02-28T01:08:48.518Z,2.45
2019-02-28T01:09:48.661Z,2.46
2019-02-28T01:10:48.783Z,2.54
2019-02-28T01:11:48.931Z,2.62
2019-02-28T01:12:53.098Z,2.65
2019-02-28T01:13:49.239Z,2.75
2019-02-28T01:14:49.359Z,2.78
2019-02-28T01:15:49.494Z,2.91
2019-02-28T01:16:50.280Z,2.98
2019-02-28T01:17:49.696Z,3.04
2019-02-28T01:18:49.780Z,3.11
2019-02-28T01:20:50.752Z,3.21
2019-02-28T01:21:49.981Z,3.23
2019-02-28T01:22:50.126Z,3.38
2019-02-28T01:23:50.164Z,3.41
2019-02-28T01:24:50.183Z,3.43
2019-02-28T01:25:50.269Z,3.45
2019-02-28T01:26:50.369Z,3.46
2019-02-28T01:27:52.410Z,3.48
2019-02-28T01:28:50.477Z,3.49
2019-02-28T01:29:50.535Z,3.52
2019-02-28T01:30:50.670Z,3.54
2019-02-28T01:31:50.697Z,3.55
2019-02-28T01:32:51.125Z,3.60
2019-02-28T01:33:50.808Z,3.61
2019-02-28T01:34:50.886Z,3.62
2019-02-28T01:35:50.909Z,3.63
2019-02-28T01:36:50.939Z,3.66
2019-02-28T01:38:50.943Z,3.67
2019-02-28T01:39:51.377Z,3.68
2019-02-28T01:40:51.948Z,3.69
2019-02-28T01:41:52.026Z,3.67
2019-02-28T01:42:54.918Z,3.70
2019-02-28T01:43:52.188Z,3.70
2019-02-28T01:44:52.114Z,3.71
2019-02-28T01:45:52.652Z,3.72
2019-02-28T01:46:52.684Z,3.72
2019-02-28T01:47:52.729Z,3.70
2019-02-28T01:48:54.588Z,3.67
2019-02-28T01:49:52.779Z,3.66
2019-02-28T01:50:53.146Z,3.64
2019-02-28T01:51:53.639Z,3.64
2019-02-28T01:52:54.166Z,3.65
2019-02-28T01:53:54.371Z,3.63
2019-02-28T01:54:54.238Z,3.61
2019-02-28T01:55:54.244Z,3.60
2019-02-28T01:56:54.776Z,3.57
2019-02-28T01:57:54.885Z,3.55
2019-02-28T01:58:54.934Z,3.54
2019-02-28T01:59:54.999Z,3.53
2019-02-28T02:00:57.399Z,3.53
2019-02-28T02:01:55.171Z,3.53
2019-02-28T02:02:55.176Z,3.55
2019-02-28T02:03:55.850Z,3.54
2019-02-28T02:04:55.643Z,3.53
2019-02-28T02:05:56.104Z,3.53
2019-02-28T02:06:59.619Z,3.50
2019-02-28T02:07:57.161Z,3.48
2019-02-28T02:08:57.158Z,3.44
2019-02-28T02:09:56.847Z,3.40
2019-02-28T02:10:57.312Z,3.40
2019-02-28T02:11:58.903Z,3.38
2019-02-28T02:12:58.126Z,3.36
2019-02-28T02:13:58.089Z,3.33
2019-02-28T02:14:58.831Z,3.28
2019-02-28T02:15:58.945Z,3.27
2019-02-28T02:17:01.209Z,3.27
2019-02-28T02:17:59.091Z,3.25
2019-02-28T02:18:59.095Z,3.23
2019-02-28T02:19:59.328Z,3.22
2019-02-28T02:21:00.204Z,3.23
2019-02-28T02:22:00.132Z,3.23
2019-02-28T02:23:00.224Z,3.20
2019-02-28T02:24:00.019Z,3.17
2019-02-28T02:25:02.853Z,3.17
2019-02-28T02:26:00.904Z,3.13
2019-02-28T02:27:00.648Z,3.11
2019-02-28T02:28:01.220Z,3.13
2019-02-28T02:29:01.938Z,3.11
2019-02-28T02:30:01.529Z,3.08
2019-02-28T02:31:01.837Z,3.05
2019-02-28T02:32:02.574Z,3.02
2019-02-28T02:33:01.952Z,2.99
2019-02-28T02:34:01.976Z,2.97
2019-02-28T02:35:08.095Z,2.95
2019-02-28T02:36:02.724Z,2.91
2019-02-28T02:37:02.816Z,2.87
2019-02-28T02:38:04.584Z,2.84
2019-02-28T02:39:03.269Z,2.80
2019-02-28T02:40:03.275Z,2.78
2019-02-28T02:41:04.866Z,2.74
2019-02-28T02:42:09.784Z,2.71
2019-02-28T02:43:03.911Z,2.69
2019-02-28T02:44:04.051Z,2.65
2019-02-28T02:46:04.196Z,2.62
2019-02-28T02:47:04.317Z,2.53
2019-02-28T02:48:05.516Z,2.51
2019-02-28T02:49:04.578Z,2.48
2019-02-28T02:50:04.743Z,2.44
2019-02-28T02:51:10.771Z,2.40
2019-02-28T02:52:05.266Z,2.37
2019-02-28T02:53:06.556Z,2.33
2019-02-28T02:54:05.418Z,2.33
2019-02-28T02:55:05.517Z,2.32
2019-02-28T02:56:05.638Z,2.31
2019-02-28T02:57:05.748Z,2.29
2019-02-28T02:58:05.862Z,2.27
2019-02-28T02:59:05.901Z,2.21
2019-02-28T03:00:05.979Z,2.18
2019-02-28T03:01:06.425Z,2.14
2019-02-28T03:02:06.489Z,2.10
2019-02-28T03:03:07.817Z,2.08
2019-02-28T03:04:06.651Z,2.06
2019-02-28T03:05:06.707Z,2.05
2019-02-28T03:06:12.115Z,2.04
2019-02-28T03:07:07.130Z,2.04
2019-02-28T03:08:07.613Z,2.05
2019-02-28T03:09:09.978Z,2.05
2019-02-28T03:10:08.636Z,2.02
2019-02-28T03:11:09.059Z,2.00
2019-02-28T03:12:09.598Z,2.00
2019-02-28T03:13:09.661Z,1.99
2019-02-28T03:14:09.728Z,1.98
2019-02-28T03:15:09.800Z,2.01
2019-02-28T03:16:09.819Z,2.04
2019-02-28T03:17:12.018Z,2.06
2019-02-28T03:18:10.705Z,2.08
2019-02-28T03:19:10.579Z,2.07
2019-02-28T03:20:11.012Z,2.08
2019-02-28T03:21:14.999Z,2.10
2019-02-28T03:22:11.727Z,2.10
2019-02-28T03:23:11.597Z,2.13
2019-02-28T03:24:15.260Z,2.14
2019-02-28T03:25:12.220Z,2.14
2019-02-28T03:26:12.470Z,2.13
2019-02-28T03:27:18.581Z,2.11
2019-02-28T03:28:14.102Z,2.11
2019-02-28T03:29:13.483Z,2.10
2019-02-28T03:30:26.545Z,2.10
2019-02-28T03:31:15.444Z,2.08
2019-02-28T03:32:13.881Z,2.07
2019-02-28T03:33:24.136Z,2.05
2019-02-28T03:34:14.341Z,2.04
2019-02-28T03:35:14.322Z,2.02
2019-02-28T03:36:15.913Z,2.00
2019-02-28T03:37:14.976Z,1.99
2019-02-28T03:38:15.055Z,1.98
2019-02-28T03:39:15.262Z,1.96
2019-02-28T03:40:15.542Z,1.94
2019-02-28T03:41:17.834Z,1.91
2019-02-28T03:42:15.884Z,1.90
2019-02-28T03:43:16.101Z,1.90
2019-02-28T03:44:21.505Z,1.89
2019-02-28T03:45:16.439Z,1.89
2019-02-28T03:46:16.565Z,1.89
2019-02-28T03:47:22.758Z,1.88
2019-02-28T03:48:17.011Z,1.87
2019-02-28T03:49:17.283Z,1.84
2019-02-28T03:50:21.927Z,1.83
2019-02-28T03:51:17.954Z,1.81
2019-02-28T03:52:18.438Z,1.81
2019-02-28T03:53:20.000Z,1.78
2019-02-28T03:54:19.238Z,1.77
2019-02-28T03:55:19.582Z,1.76
2019-02-28T03:56:19.822Z,1.75
2019-02-28T03:57:20.028Z,1.74
2019-02-28T03:58:20.287Z,1.73
2019-02-28T03:59:20.651Z,1.71
2019-02-28T04:00:20.936Z,1.67
2019-02-28T04:01:21.235Z,1.66
2019-02-28T04:02:22.548Z,1.63
2019-02-28T04:03:21.645Z,1.62
2019-02-28T04:04:21.861Z,1.59
2019-02-28T04:05:26.832Z,1.57
2019-02-28T04:06:22.082Z,1.54
2019-02-28T04:07:22.155Z,1.54
2019-02-28T04:08:22.293Z,1.50
2019-02-28T04:09:22.351Z,1.47
2019-02-28T04:10:22.861Z,1.43
2019-02-28T04:11:22.553Z,1.42
2019-02-28T04:12:22.935Z,1.40
2019-02-28T04:13:23.003Z,1.38
2019-02-28T04:14:23.006Z,1.35
2019-02-28T04:15:23.514Z,1.32
2019-02-28T04:16:23.927Z,1.30
2019-02-28T04:17:29.981Z,1.29
2019-02-28T04:18:24.585Z,1.27
2019-02-28T04:19:25.099Z,1.25
2019-02-28T04:20:25.757Z,1.22
2019-02-28T04:21:25.960Z,1.21
2019-02-28T04:22:26.153Z,1.18
2019-02-28T04:23:26.322Z,1.16
2019-02-28T04:24:26.526Z,1.15
2019-02-28T04:25:26.766Z,1.14
2019-02-28T04:26:29.852Z,1.16
2019-02-28T04:27:27.118Z,1.17
2019-02-28T04:28:27.305Z,1.17
2019-02-28T04:29:31.186Z,1.24
2019-02-28T04:30:27.710Z,1.27
2019-02-28T04:31:27.977Z,1.31
2019-02-28T04:32:28.007Z,1.31
2019-02-28T04:33:28.132Z,1.32
2019-02-28T04:34:28.564Z,1.32
2019-02-28T04:35:28.819Z,1.32
2019-02-28T04:36:29.227Z,1.32
2019-02-28T04:37:29.489Z,1.31
2019-02-28T04:38:30.175Z,1.31
2019-02-28T04:39:30.698Z,1.31
2019-02-28T04:40:30.430Z,1.31
2019-02-28T04:41:32.977Z,1.29
2019-02-28T04:42:30.872Z,1.29
2019-02-28T04:43:31.072Z,1.26
2019-02-28T04:44:31.169Z,1.25
2019-02-28T04:45:31.458Z,1.22
2019-02-28T04:46:32.567Z,1.22
2019-02-28T04:47:31.918Z,1.21
2019-02-28T04:48:32.246Z,1.20
2019-02-28T04:49:32.678Z,1.20
2019-02-28T04:50:33.054Z,1.20
2019-02-28T04:51:33.390Z,1.20
2019-02-28T04:52:33.699Z,1.22
2019-02-28T04:53:33.939Z,1.23
2019-02-28T04:54:34.256Z,1.24
2019-02-28T04:55:37.160Z,1.20
2019-02-28T04:56:34.806Z,1.21
2019-02-28T04:57:35.110Z,1.20
2019-02-28T04:58:35.491Z,1.17
2019-02-28T04:59:35.825Z,1.18
2019-02-28T05:00:37.826Z,1.17
2019-02-28T05:01:36.300Z,1.17
2019-02-28T05:02:36.567Z,1.16
2019-02-28T05:04:36.848Z,1.17
2019-02-28T05:05:36.917Z,1.17
2019-02-28T05:06:37.106Z,1.16
2019-02-28T05:07:37.364Z,1.13
2019-02-28T05:08:39.081Z,1.13
2019-02-28T05:09:37.579Z,1.15
2019-02-28T05:10:37.786Z,1.11
2019-02-28T05:11:37.928Z,1.07
2019-02-28T05:12:39.723Z,1.08
2019-02-28T05:13:38.181Z,1.09
2019-02-28T05:14:38.326Z,1.09
2019-02-28T05:15:40.924Z,1.07
2019-02-28T05:16:38.713Z,1.08
2019-02-28T05:17:38.985Z,1.06
2019-02-28T05:18:39.212Z,1.02
2019-02-28T05:19:39.354Z,1.01
2019-02-28T05:20:45.159Z,0.97
2019-02-28T05:21:39.634Z,0.95
2019-02-28T05:22:39.753Z,0.95
2019-02-28T05:23:39.914Z,0.93
2019-02-28T05:24:42.670Z,0.94
2019-02-28T05:25:40.001Z,0.92
2019-02-28T05:26:40.076Z,0.91
2019-02-28T05:27:40.159Z,0.90
2019-02-28T05:28:41.293Z,0.88
2019-02-28T05:29:40.286Z,0.86
2019-02-28T05:30:41.548Z,0.81
2019-02-28T05:31:40.519Z,0.79
2019-02-28T05:32:40.573Z,0.79
2019-02-28T05:33:42.112Z,0.81
2019-02-28T05:34:40.661Z,0.80
2019-02-28T05:35:40.678Z,0.78
2019-02-28T05:36:40.748Z,0.79
2019-02-28T05:37:46.717Z,0.83
2019-02-28T05:38:40.906Z,0.82
2019-02-28T05:39:40.879Z,0.80
2019-02-28T05:40:41.529Z,0.80
2019-02-28T05:41:41.444Z,0.81
2019-02-28T05:42:41.484Z,0.81
2019-02-28T05:43:41.532Z,0.78
2019-02-28T05:44:41.538Z,0.75
2019-02-28T05:45:41.615Z,0.78
2019-02-28T05:46:41.482Z,0.80
2019-02-28T05:47:46.161Z,0.80
2019-02-28T05:48:42.047Z,0.81
2019-02-28T05:49:42.504Z,0.81
2019-02-28T05:50:42.474Z,0.82
2019-02-28T05:51:43.072Z,0.83
2019-02-28T05:52:43.306Z,0.83
2019-02-28T05:53:43.527Z,0.84
2019-02-28T05:54:43.645Z,0.84
2019-02-28T05:55:43.853Z,0.90
2019-02-28T05:56:44.087Z,0.96
2019-02-28T05:57:44.910Z,1.01
2019-02-28T05:58:44.531Z,1.04
2019-02-28T05:59:44.714Z,1.06
2019-02-28T06:00:44.902Z,1.11
2019-02-28T06:01:46.900Z,1.17
2019-02-28T06:02:45.279Z,1.22
2019-02-28T06:03:45.434Z,1.26
2019-02-28T06:04:45.616Z,1.30
2019-02-28T06:05:46.336Z,1.35
2019-02-28T06:06:45.824Z,1.39
2019-02-28T06:07:45.975Z,1.43
2019-02-28T06:08:46.085Z,1.45
2019-02-28T06:09:48.720Z,1.50
2019-02-28T06:10:46.455Z,1.53
2019-02-28T06:11:46.607Z,1.57
2019-02-28T06:12:46.782Z,1.60
2019-02-28T06:13:49.624Z,1.64
2019-02-28T06:14:47.493Z,1.68
2019-02-28T06:15:47.818Z,1.69
2019-02-28T06:16:48.181Z,1.78
2019-02-28T06:17:48.436Z,1.81
2019-02-28T06:18:48.754Z,1.84
2019-02-28T06:19:49.108Z,1.86
2019-02-28T06:20:51.434Z,1.88
2019-02-28T06:21:49.686Z,1.89
2019-02-28T06:22:50.057Z,1.90
2019-02-28T06:23:50.235Z,1.93
2019-02-28T06:24:50.524Z,1.95
2019-02-28T06:25:50.917Z,1.95
2019-02-28T06:26:51.202Z,1.97
2019-02-28T06:27:51.421Z,1.99
2019-02-28T06:28:51.655Z,2.00
2019-02-28T06:29:51.869Z,2.02
2019-02-28T06:30:51.991Z,2.04
2019-02-28T06:31:52.034Z,2.05
2019-02-28T06:32:57.769Z,2.07
2019-02-28T06:33:54.593Z,2.08
2019-02-28T06:35:53.499Z,2.10
2019-02-28T06:36:52.720Z,2.11
2019-02-28T06:37:52.919Z,2.12
2019-02-28T06:38:54.601Z,2.12
2019-02-28T06:39:53.217Z,2.13
2019-02-28T06:40:53.356Z,2.14
2019-02-28T06:41:53.562Z,2.15
2019-02-28T06:42:55.787Z,2.17
2019-02-28T06:43:54.134Z,2.20
2019-02-28T06:44:54.207Z,2.24
2019-02-28T06:45:54.456Z,2.26
2019-02-28T06:46:54.627Z,2.28
2019-02-28T06:47:54.743Z,2.31
2019-02-28T06:49:01.487Z,2.34
2019-02-28T06:49:54.988Z,2.38
2019-02-28T06:50:55.021Z,2.41
2019-02-28T06:51:55.336Z,2.45
2019-02-28T06:52:56.431Z,2.48
2019-02-28T06:53:55.488Z,2.52
2019-02-28T06:54:55.458Z,2.55
2019-02-28T06:55:55.992Z,2.59
2019-02-28T06:56:56.037Z,2.62
2019-02-28T06:57:58.841Z,2.66
2019-02-28T06:58:55.904Z,2.70
2019-02-28T06:59:56.153Z,2.75
2019-02-28T07:00:56.425Z,2.79
2019-02-28T07:01:57.749Z,2.84
2019-02-28T07:02:56.918Z,2.90
2019-02-28T07:03:57.700Z,2.96
2019-02-28T07:04:57.727Z,3.02
2019-02-28T07:06:01.055Z,3.08
2019-02-28T07:06:58.190Z,3.14
2019-02-28T07:07:58.321Z,3.20
2019-02-28T07:09:01.842Z,3.26
2019-02-28T07:09:58.771Z,3.32
2019-02-28T07:10:58.981Z,3.38
2019-02-28T07:11:59.135Z,3.43
2019-02-28T07:13:04.050Z,3.49
2019-02-28T07:13:59.590Z,3.56
2019-02-28T07:14:59.753Z,3.62
2019-02-28T07:16:00.027Z,3.70
2019-02-28T07:17:00.179Z,3.76
2019-02-28T07:18:00.385Z,3.83
2019-02-28T07:19:00.663Z,3.91
2019-02-28T07:20:02.058Z,4.00
2019-02-28T07:21:01.089Z,4.09
2019-02-28T07:22:01.311Z,4.18
2019-02-28T07:23:01.603Z,4.27
2019-02-28T07:24:02.840Z,4.35
2019-02-28T07:25:02.391Z,4.44
2019-02-28T07:26:02.754Z,4.53
2019-02-28T07:27:04.250Z,4.62
2019-02-28T07:28:03.386Z,4.71
2019-02-28T07:29:03.821Z,4.79
2019-02-28T07:30:04.207Z,4.88
2019-02-28T07:31:04.623Z,4.96
2019-02-28T07:32:04.896Z,5.05
2019-02-28T07:33:09.483Z,5.13
2019-02-28T07:34:05.617Z,5.21
2019-02-28T07:35:05.987Z,5.28
2019-02-28T07:36:09.565Z,5.35
2019-02-28T07:37:06.556Z,5.43
2019-02-28T07:38:06.761Z,5.51
2019-02-28T07:39:07.006Z,5.59
2019-02-28T07:40:07.081Z,5.67
2019-02-28T07:41:07.463Z,5.74
2019-02-28T07:42:07.675Z,5.81
2019-02-28T07:43:12.284Z,5.89
2019-02-28T07:44:08.041Z,5.96
2019-02-28T07:45:08.158Z,6.02
2019-02-28T07:47:08.467Z,6.09
2019-02-28T07:48:08.606Z,6.17
2019-02-28T07:49:08.788Z,6.26
2019-02-28T07:50:10.726Z,6.33
2019-02-28T07:51:09.172Z,6.41
2019-02-28T07:52:09.315Z,6.50
2019-02-28T07:53:09.811Z,6.58
2019-02-28T07:54:12.648Z,6.64
2019-02-28T07:55:10.008Z,6.73
2019-02-28T07:56:10.332Z,6.81
2019-02-28T07:57:10.377Z,6.89
2019-02-28T07:58:10.520Z,6.98
2019-02-28T07:59:10.596Z,7.05
2019-02-28T08:00:17.120Z,7.14
2019-02-28T08:01:10.732Z,7.22
2019-02-28T08:02:10.863Z,7.30
2019-02-28T08:03:11.984Z,7.38
2019-02-28T08:04:11.322Z,7.46
2019-02-28T08:05:11.967Z,7.54
2019-02-28T08:06:11.868Z,7.61
2019-02-28T08:07:14.858Z,7.69
2019-02-28T08:08:12.893Z,7.77
2019-02-28T08:09:13.308Z,7.85
2019-02-28T08:10:15.999Z,7.92
2019-02-28T08:11:13.815Z,8.01
2019-02-28T08:12:14.083Z,8.09
2019-02-28T08:13:14.330Z,8.17
2019-02-28T08:14:14.447Z,8.25
2019-02-28T08:15:14.612Z,8.33
2019-02-28T08:16:14.754Z,8.42
2019-02-28T08:17:14.942Z,8.51
2019-02-28T08:18:15.787Z,8.61
2019-02-28T08:19:15.402Z,8.68
2019-02-28T08:20:15.615Z,8.76
2019-02-28T08:21:16.103Z,8.83
2019-02-28T08:22:16.227Z,8.90
2019-02-28T08:23:16.415Z,9.00
2019-02-28T08:24:16.593Z,9.10
2019-02-28T08:25:16.813Z,9.21
2019-02-28T08:26:18.819Z,9.32
2019-02-28T08:27:17.367Z,9.40
2019-02-28T08:28:17.717Z,9.52
2019-02-28T08:29:17.888Z,10.00
2019-02-28T08:30:19.444Z,10.03
2019-02-28T08:31:18.273Z,10.09
2019-02-28T08:32:18.650Z,10.46
2019-02-28T08:33:19.108Z,10.68
2019-02-28T08:34:20.697Z,10.75
2019-02-28T08:35:19.676Z,10.85
2019-02-28T08:36:20.073Z,11.01
2019-02-28T08:37:22.418Z,11.19
2019-02-28T08:38:20.775Z,12.05
2019-02-28T08:39:21.161Z,12.36
2019-02-28T08:40:21.471Z,12.45
2019-02-28T08:41:22.472Z,12.97
2019-02-28T08:42:21.850Z,13.26
2019-02-28T08:43:27.009Z,13.31
2019-02-28T08:44:23.782Z,13.64
2019-02-28T08:45:22.336Z,13.70
2019-02-28T08:46:22.565Z,13.73
2019-02-28T08:47:22.645Z,13.79
2019-02-28T08:48:22.774Z,13.85
2019-02-28T08:49:22.929Z,13.99
2019-02-28T08:50:23.542Z,13.99
2019-02-28T08:51:23.205Z,13.97
2019-02-28T08:52:23.322Z,14.09
2019-02-28T08:53:23.494Z,14.08
2019-02-28T08:54:27.232Z,14.22
2019-02-28T08:55:28.651Z,14.26
2019-02-28T08:56:24.023Z,14.50
2019-02-28T08:57:25.590Z,14.67
2019-02-28T08:58:24.350Z,14.75
2019-02-28T08:59:24.422Z,14.78
2019-02-28T09:00:31.032Z,14.83
2019-02-28T09:01:24.648Z,15.14
2019-02-28T09:02:24.752Z,15.28
2019-02-28T09:03:27.330Z,15.29
2019-02-28T09:04:24.898Z,15.54
2019-02-28T09:05:27.805Z,15.57
2019-02-28T09:06:25.391Z,15.63
2019-02-28T09:07:25.628Z,15.70
2019-02-28T09:08:26.006Z,16.02
2019-02-28T09:09:26.133Z,16.23
2019-02-28T09:10:26.646Z,16.41
2019-02-28T09:11:26.561Z,16.55
2019-02-28T09:12:29.892Z,16.59
2019-02-28T09:13:27.107Z,16.78
2019-02-28T09:14:27.210Z,16.80
2019-02-28T09:15:31.096Z,16.87
2019-02-28T09:16:28.081Z,16.80
2019-02-28T09:17:28.268Z,16.83
2019-02-28T09:18:28.409Z,16.72
2019-02-28T09:19:28.590Z,16.70
2019-02-28T09:20:28.735Z,16.48
2019-02-28T09:21:28.902Z,16.49
2019-02-28T09:22:29.050Z,16.14
2019-02-28T09:23:29.287Z,16.15
2019-02-28T09:24:29.482Z,16.13
2019-02-28T09:25:29.644Z,15.78
2019-02-28T09:26:31.228Z,15.66
2019-02-28T09:27:29.982Z,15.66
2019-02-28T09:28:30.189Z,15.45
2019-02-28T09:30:30.675Z,15.44
2019-02-28T09:31:30.692Z,15.65
2019-02-28T09:32:30.811Z,15.88
2019-02-28T09:33:30.994Z,16.06
2019-02-28T09:34:31.594Z,16.24
2019-02-28T09:35:31.355Z,16.39
2019-02-28T09:36:31.556Z,16.49
2019-02-28T09:37:31.768Z,16.91
2019-02-28T09:38:32.111Z,16.90
2019-02-28T09:39:32.368Z,16.98
2019-02-28T09:40:32.635Z,17.08
2019-02-28T09:41:32.992Z,17.06
2019-02-28T09:42:33.484Z,17.01
2019-02-28T09:43:33.907Z,16.88
2019-02-28T09:44:34.280Z,16.58
2019-02-28T09:45:34.470Z,16.54
2019-02-28T09:46:34.864Z,16.63
2019-02-28T09:47:35.214Z,16.59
2019-02-28T09:48:37.077Z,16.57
2019-02-28T09:49:35.869Z,16.32
2019-02-28T09:50:36.123Z,16.23
2019-02-28T09:51:36.408Z,16.46
2019-02-28T09:52:41.257Z,16.16
2019-02-28T09:53:36.838Z,16.16
2019-02-28T09:54:37.074Z,15.87
2019-02-28T09:55:37.250Z,16.10
2019-02-28T09:56:37.472Z,16.05
2019-02-28T09:57:37.701Z,16.34
2019-02-28T09:58:37.930Z,15.94
2019-02-28T09:59:38.685Z,16.07
2019-02-28T10:00:38.233Z,16.13
2019-02-28T10:01:38.469Z,16.26
2019-02-28T10:02:40.421Z,16.11
2019-02-28T10:03:38.781Z,16.27
2019-02-28T10:04:38.878Z,16.06
2019-02-28T10:05:42.541Z,15.93
2019-02-28T10:06:39.298Z,16.15
2019-02-28T10:07:39.452Z,16.46
2019-02-28T10:08:39.594Z,16.34
2019-02-28T10:09:40.485Z,16.25
2019-02-28T10:10:39.761Z,16.40
2019-02-28T10:11:40.533Z,16.75
2019-02-28T10:12:43.039Z,16.74
2019-02-28T10:13:39.926Z,16.88
2019-02-28T10:14:40.016Z,16.94
2019-02-28T10:15:41.727Z,16.87
2019-02-28T10:16:40.253Z,16.65
2019-02-28T10:17:42.164Z,16.71
2019-02-28T10:18:40.789Z,16.82
2019-02-28T10:19:45.754Z,16.90
2019-02-28T10:20:40.697Z,16.92
2019-02-28T10:21:41.153Z,16.98
2019-02-28T10:22:44.319Z,16.87
2019-02-28T10:23:42.859Z,16.71
2019-02-28T10:24:41.793Z,16.81
2019-02-28T10:25:43.603Z,16.89
2019-02-28T10:26:41.709Z,16.90
2019-02-28T10:27:42.286Z,16.88
2019-02-28T10:28:42.042Z,16.51
2019-02-28T10:29:42.704Z,16.47
2019-02-28T10:30:42.937Z,16.37
2019-02-28T10:31:43.064Z,16.41
2019-02-28T10:32:43.987Z,16.43
2019-02-28T10:33:43.345Z,16.58
2019-02-28T10:34:43.512Z,16.64
2019-02-28T10:35:43.747Z,16.78
2019-02-28T10:36:44.380Z,16.71
2019-02-28T10:37:44.107Z,16.63
2019-02-28T10:38:44.317Z,16.63
2019-02-28T10:39:44.521Z,16.62
2019-02-28T10:40:44.667Z,16.59
2019-02-28T10:41:44.861Z,16.80
2019-02-28T10:42:45.090Z,16.81
2019-02-28T10:43:49.804Z,16.92
2019-02-28T10:44:45.544Z,16.96
2019-02-28T10:45:46.167Z,17.16
2019-02-28T10:46:45.864Z,17.17
2019-02-28T10:47:45.981Z,17.22
2019-02-28T10:48:50.794Z,17.30
2019-02-28T10:49:46.407Z,17.53
2019-02-28T10:50:46.563Z,17.66
2019-02-28T10:51:49.631Z,17.84
2019-02-28T10:52:47.205Z,17.71
2019-02-28T10:53:47.488Z,17.73
2019-02-28T10:54:48.802Z,17.51
2019-02-28T10:55:48.082Z,17.44
2019-02-28T10:56:48.419Z,17.52
2019-02-28T10:58:49.953Z,17.61
2019-02-28T10:59:49.138Z,17.53
2019-02-28T11:00:49.411Z,17.73
2019-02-28T11:01:49.647Z,17.46
2019-02-28T11:02:50.432Z,17.52
2019-02-28T11:03:50.264Z,17.51
2019-02-28T11:04:50.377Z,17.55
2019-02-28T11:05:54.302Z,17.49
2019-02-28T11:06:51.090Z,17.54
2019-02-28T11:07:51.367Z,17.62
2019-02-28T11:08:51.642Z,17.49
2019-02-28T11:09:51.828Z,17.62
2019-02-28T11:10:52.016Z,17.46
2019-02-28T11:11:52.197Z,17.50
2019-02-28T11:12:54.331Z,17.61
2019-02-28T11:13:52.469Z,17.65
2019-02-28T11:14:52.638Z,17.67
2019-02-28T11:15:52.788Z,17.76
2019-02-28T11:16:59.120Z,17.80
2019-02-28T11:17:53.076Z,17.84
2019-02-28T11:18:53.317Z,17.90
2019-02-28T11:19:53.505Z,17.95
2019-02-28T11:20:53.717Z,17.94
2019-02-28T11:21:53.949Z,17.82
2019-02-28T11:22:54.209Z,17.79
2019-02-28T11:23:54.350Z,17.62
2019-02-28T11:24:57.281Z,17.61
2019-02-28T11:25:54.497Z,17.27
2019-02-28T11:26:55.603Z,17.51
2019-02-28T11:27:54.732Z,17.53
2019-02-28T11:28:54.722Z,17.47
2019-02-28T11:29:54.748Z,17.47
2019-02-28T11:30:54.866Z,17.46
2019-02-28T11:31:55.139Z,17.47
2019-02-28T11:32:55.027Z,17.42
2019-02-28T11:33:55.260Z,17.49
2019-02-28T11:34:55.331Z,17.43
2019-02-28T11:35:59.033Z,17.47
2019-02-28T11:36:55.664Z,17.32
2019-02-28T11:37:55.705Z,17.41
2019-02-28T11:38:56.061Z,17.45
2019-02-28T11:39:56.019Z,17.51
2019-02-28T11:40:57.543Z,17.52
2019-02-28T11:41:56.092Z,17.50
2019-02-28T11:42:56.200Z,17.38
2019-02-28T11:43:55.988Z,17.49
2019-02-28T11:44:56.434Z,17.43
2019-02-28T11:46:00.553Z,17.49
2019-02-28T11:46:56.760Z,17.48
2019-02-28T11:47:57.365Z,17.43
2019-02-28T11:48:57.436Z,17.46
2019-02-28T11:50:00.339Z,17.49
2019-02-28T11:50:58.413Z,17.49
2019-02-28T11:51:58.742Z,17.47
2019-02-28T11:53:03.128Z,17.48
2019-02-28T11:53:59.202Z,17.54
2019-02-28T11:54:59.467Z,17.62
2019-02-28T11:55:59.674Z,17.69
2019-02-28T11:57:02.712Z,17.75
2019-02-28T11:58:00.039Z,17.75
2019-02-28T11:59:00.275Z,17.78
2019-02-28T12:00:01.480Z,17.77
2019-02-28T12:01:02.318Z,17.85
2019-02-28T12:02:00.946Z,17.82
2019-02-28T12:03:01.256Z,18.03
2019-02-28T12:04:01.631Z,18.08
2019-02-28T12:05:01.998Z,18.13
2019-02-28T12:06:01.880Z,18.08
2019-02-28T12:07:02.180Z,18.12
2019-02-28T12:08:02.415Z,18.39
2019-02-28T12:09:03.008Z,18.76
2019-02-28T12:10:03.030Z,18.75
2019-02-28T12:11:03.309Z,18.90
2019-02-28T12:12:03.695Z,18.88
2019-02-28T12:13:03.889Z,19.41
2019-02-28T12:14:06.219Z,19.86
2019-02-28T12:15:06.153Z,19.84
2019-02-28T12:16:04.433Z,20.04
2019-02-28T12:17:04.733Z,20.45
2019-02-28T12:18:05.036Z,20.90
2019-02-28T12:19:05.352Z,21.13
2019-02-28T12:20:05.604Z,21.36
2019-02-28T12:21:05.748Z,21.62
2019-02-28T12:22:05.953Z,21.56
2019-02-28T12:23:06.222Z,21.56
2019-02-28T12:24:06.576Z,21.79
2019-02-28T12:25:07.575Z,21.96
2019-02-28T12:26:06.805Z,22.29
2019-02-28T12:27:06.977Z,22.55
2019-02-28T12:28:07.133Z,22.53
2019-02-28T12:29:09.381Z,22.62
2019-02-28T12:30:07.439Z,22.81
2019-02-28T12:31:07.641Z,23.07
2019-02-28T12:32:08.680Z,22.94
2019-02-28T12:33:07.797Z,23.14
2019-02-28T12:34:07.983Z,23.37
2019-02-28T12:35:08.228Z,23.35
2019-02-28T12:36:11.341Z,23.37
2019-02-28T12:37:08.526Z,23.45
2019-02-28T12:38:08.703Z,23.49
2019-02-28T12:39:08.894Z,23.51
2019-02-28T12:40:10.214Z,23.72
2019-02-28T12:41:09.503Z,23.88
2019-02-28T12:42:09.723Z,23.72
2019-02-28T12:43:09.838Z,23.77
2019-02-28T12:44:12.463Z,24.09
2019-02-28T12:45:10.078Z,24.23
2019-02-28T12:46:10.408Z,24.33
2019-02-28T12:47:10.533Z,23.83
2019-02-28T12:48:13.778Z,24.29
2019-02-28T12:49:10.628Z,24.31
2019-02-28T12:50:10.647Z,24.47
2019-02-28T12:51:10.810Z,24.27
2019-02-28T12:52:11.299Z,24.47
2019-02-28T12:53:10.936Z,24.32
2019-02-28T12:54:10.912Z,23.96
2019-02-28T12:55:11.495Z,24.12
2019-02-28T12:56:14.222Z,24.29
2019-02-28T12:57:11.846Z,24.31
2019-02-28T12:58:12.462Z,24.34
2019-02-28T12:59:12.398Z,23.96
2019-02-28T13:00:13.069Z,24.15
2019-02-28T13:01:13.397Z,24.22
2019-02-28T13:02:13.765Z,23.95
2019-02-28T13:03:19.137Z,24.16
2019-02-28T13:04:14.258Z,23.92
2019-02-28T13:05:15.881Z,23.71
2019-02-28T13:06:14.697Z,23.85
2019-02-28T13:07:14.938Z,24.07
2019-02-28T13:08:15.026Z,24.10
2019-02-28T13:09:16.946Z,23.70
2019-02-28T13:10:15.413Z,23.74
2019-02-28T13:11:15.565Z,23.90
2019-02-28T13:12:15.702Z,23.57
2019-02-28T13:13:15.828Z,23.88
2019-02-28T13:14:15.988Z,23.98
2019-02-28T13:15:16.134Z,23.47
2019-02-28T13:16:17.367Z,23.69
2019-02-28T13:17:16.481Z,23.72
2019-02-28T13:18:16.753Z,23.64
2019-02-28T13:19:19.991Z,23.65
2019-02-28T13:20:17.505Z,23.46